createdAt,value
2022-09-09T00:00:48.336Z,23.27
2022-09-09T00:01:48.259Z,22.91
2022-09-09T00:02:48.348Z,22.51
2022-09-09T00:03:48.181Z,22.89
2022-09-09T00:04:48.027Z,22.61
2022-09-09T00:05:47.950Z,22.91
2022-09-09T00:06:47.878Z,22.89
2022-09-09T00:07:47.804Z,22.81
2022-09-09T00:08:47.719Z,22.61
2022-09-09T00:09:47.646Z,23.10
2022-09-09T00:10:47.575Z,22.41
2022-09-09T00:11:47.492Z,22.22
2022-09-09T00:12:47.411Z,22.99
2022-09-09T00:13:47.334Z,23.37
2022-09-09T00:14:47.264Z,23.27
2022-09-09T00:15:47.234Z,23.47
2022-09-09T00:16:47.103Z,23.37
2022-09-09T00:17:47.027Z,24.04
2022-09-09T00:18:46.951Z,24.62
2022-09-09T00:19:46.870Z,24.23
2022-09-09T00:20:46.791Z,24.52
2022-09-09T00:21:46.718Z,24.23
2022-09-09T00:22:46.645Z,23.94
2022-09-09T00:23:46.565Z,23.94
2022-09-09T00:24:46.488Z,23.08
2022-09-09T00:25:48.793Z,23.18
2022-09-09T00:26:46.336Z,22.99
2022-09-09T00:27:46.258Z,23.75
2022-09-09T00:28:46.188Z,23.37
2022-09-09T00:29:46.112Z,23.57
2022-09-09T00:30:46.082Z,23.75
2022-09-09T00:31:45.944Z,23.27
2022-09-09T00:32:45.874Z,23.37
2022-09-09T00:33:45.802Z,24.14
2022-09-09T00:34:45.714Z,23.37
2022-09-09T00:35:45.641Z,23.08
2022-09-09T00:36:45.564Z,23.27
2022-09-09T00:37:45.480Z,24.33
2022-09-09T00:38:45.407Z,24.52
2022-09-09T00:39:45.428Z,24.04
2022-09-09T00:40:45.252Z,23.66
2022-09-09T00:41:45.174Z,23.08
2022-09-09T00:42:45.099Z,23.18
2022-09-09T00:43:45.022Z,22.89
2022-09-09T00:44:44.945Z,22.89
2022-09-09T00:45:44.897Z,22.32
2022-09-09T00:46:44.788Z,21.94
2022-09-09T00:47:44.723Z,22.13
2022-09-09T00:48:44.636Z,21.84
2022-09-09T00:49:44.560Z,21.84
2022-09-09T00:50:44.489Z,20.50
2022-09-09T00:51:44.405Z,19.73
2022-09-09T00:52:44.325Z,19.92
2022-09-09T00:53:44.249Z,18.58
2022-09-09T00:54:44.180Z,18.58
2022-09-09T00:55:44.099Z,18.10
2022-09-09T00:56:44.019Z,18.01
2022-09-09T00:57:43.941Z,17.82
2022-09-09T00:58:43.864Z,18.01
2022-09-09T00:59:43.790Z,17.82
2022-09-09T01:00:43.710Z,18.10
2022-09-09T01:01:43.686Z,16.96
2022-09-09T01:02:43.639Z,17.82
2022-09-09T01:03:43.478Z,16.76
2022-09-09T01:04:43.402Z,15.52
2022-09-09T01:05:43.327Z,15.13
2022-09-09T01:06:43.251Z,15.80
2022-09-09T01:07:43.177Z,13.21
2022-09-09T01:08:43.086Z,13.12
2022-09-09T01:09:43.018Z,13.41
2022-09-09T01:10:42.935Z,13.60
2022-09-09T01:11:42.859Z,13.31
2022-09-09T01:12:42.782Z,13.03
2022-09-09T01:13:42.704Z,13.03
2022-09-09T01:14:42.634Z,12.46
2022-09-09T01:15:42.549Z,12.55
2022-09-09T01:16:42.546Z,12.84
2022-09-09T01:17:42.396Z,12.55
2022-09-09T01:18:42.322Z,12.27
2022-09-09T01:19:42.250Z,12.36
2022-09-09T01:20:42.165Z,12.93
2022-09-09T01:21:42.088Z,13.03
2022-09-09T01:22:42.014Z,12.55
2022-09-09T01:23:41.930Z,12.27
2022-09-09T01:24:41.856Z,11.69
2022-09-09T01:25:41.780Z,11.30
2022-09-09T01:26:41.703Z,11.60
2022-09-09T01:27:41.623Z,12.46
2022-09-09T01:28:41.548Z,12.46
2022-09-09T01:29:41.475Z,12.36
2022-09-09T01:30:41.416Z,12.27
2022-09-09T01:31:41.312Z,13.03
2022-09-09T01:32:41.246Z,13.42
2022-09-09T01:33:41.167Z,13.32
2022-09-09T01:34:41.083Z,12.46
2022-09-09T01:35:41.039Z,12.36
2022-09-09T01:36:40.932Z,13.03
2022-09-09T01:37:40.872Z,13.32
2022-09-09T01:38:40.793Z,13.23
2022-09-09T01:39:40.728Z,13.32
2022-09-09T01:40:40.621Z,13.51
2022-09-09T01:41:40.543Z,13.80
2022-09-09T01:42:40.471Z,13.23
2022-09-09T01:43:40.386Z,12.93
2022-09-09T01:44:40.310Z,12.93
2022-09-09T01:45:40.257Z,12.93
2022-09-09T01:46:40.154Z,13.13
2022-09-09T01:47:40.084Z,13.60
2022-09-09T01:48:40.006Z,13.80
2022-09-09T01:49:39.934Z,13.13
2022-09-09T01:50:39.854Z,12.74
2022-09-09T01:51:39.774Z,13.13
2022-09-09T01:52:39.697Z,13.03
2022-09-09T01:53:39.622Z,12.93
2022-09-09T01:54:39.549Z,12.93
2022-09-09T01:55:39.468Z,12.84
2022-09-09T01:56:39.389Z,13.03
2022-09-09T01:57:39.313Z,13.03
2022-09-09T01:58:39.239Z,13.32
2022-09-09T01:59:39.165Z,13.89
2022-09-09T02:00:39.075Z,13.60
2022-09-09T02:01:39.034Z,13.70
2022-09-09T02:02:38.985Z,13.32
2022-09-09T02:03:38.848Z,13.13
2022-09-09T02:04:38.771Z,13.60
2022-09-09T02:05:38.696Z,13.51
2022-09-09T02:06:38.626Z,13.99
2022-09-09T02:07:38.544Z,13.70
2022-09-09T02:08:38.464Z,14.76
2022-09-09T02:09:38.388Z,15.33
2022-09-09T02:10:38.317Z,15.14
2022-09-09T02:11:38.237Z,16.29
2022-09-09T02:12:38.157Z,16.19
2022-09-09T02:13:38.082Z,16.29
2022-09-09T02:14:38.000Z,15.91
2022-09-09T02:15:37.925Z,15.62
2022-09-09T02:16:37.933Z,15.72
2022-09-09T02:17:37.768Z,14.85
2022-09-09T02:18:37.760Z,15.05
2022-09-09T02:19:37.615Z,15.43
2022-09-09T02:20:37.543Z,16.29
2022-09-09T02:21:37.465Z,16.77
2022-09-09T02:22:37.397Z,15.91
2022-09-09T02:23:37.311Z,16.19
2022-09-09T02:24:37.236Z,16.00
2022-09-09T02:25:37.163Z,16.77
2022-09-09T02:26:37.083Z,16.19
2022-09-09T02:27:37.003Z,16.00
2022-09-09T02:28:37.043Z,16.19
2022-09-09T02:29:36.850Z,16.29
2022-09-09T02:30:36.826Z,16.00
2022-09-09T02:31:36.697Z,16.39
2022-09-09T02:32:36.656Z,15.72
2022-09-09T02:33:36.538Z,15.33
2022-09-09T02:34:36.459Z,15.62
2022-09-09T02:35:36.380Z,14.95
2022-09-09T02:36:36.305Z,15.23
2022-09-09T02:37:36.233Z,14.95
2022-09-09T02:38:36.447Z,15.62
2022-09-09T02:39:36.112Z,15.62
2022-09-09T02:40:36.000Z,15.72
2022-09-09T02:41:35.923Z,15.52
2022-09-09T02:42:35.845Z,16.10
2022-09-09T02:43:35.772Z,15.62
2022-09-09T02:44:35.692Z,15.52
2022-09-09T02:45:35.623Z,16.10
2022-09-09T02:46:35.537Z,15.61
2022-09-09T02:47:35.463Z,14.85
2022-09-09T02:48:35.522Z,15.33
2022-09-09T02:49:35.303Z,14.65
2022-09-09T02:50:35.231Z,15.43
2022-09-09T02:51:35.151Z,15.90
2022-09-09T02:52:35.080Z,15.71
2022-09-09T02:53:34.998Z,15.43
2022-09-09T02:54:34.932Z,16.29
2022-09-09T02:55:34.849Z,16.00
2022-09-09T02:56:34.775Z,16.58
2022-09-09T02:57:34.687Z,16.96
2022-09-09T02:58:34.617Z,16.86
2022-09-09T02:59:34.541Z,16.86
2022-09-09T03:00:34.454Z,16.86
2022-09-09T03:01:34.459Z,16.67
2022-09-09T03:02:34.361Z,16.86
2022-09-09T03:03:34.228Z,17.06
2022-09-09T03:04:34.150Z,17.53
2022-09-09T03:05:34.072Z,17.62
2022-09-09T03:06:33.992Z,16.96
2022-09-09T03:07:33.916Z,16.76
2022-09-09T03:08:33.875Z,16.76
2022-09-09T03:09:33.764Z,16.76
2022-09-09T03:10:33.689Z,16.00
2022-09-09T03:11:33.612Z,16.19
2022-09-09T03:12:33.533Z,16.86
2022-09-09T03:13:33.463Z,17.05
2022-09-09T03:14:33.378Z,17.05
2022-09-09T03:15:33.299Z,16.86
2022-09-09T03:16:33.328Z,16.76
2022-09-09T03:17:33.151Z,16.76
2022-09-09T03:18:33.075Z,16.38
2022-09-09T03:19:32.996Z,16.38
2022-09-09T03:20:32.919Z,16.66
2022-09-09T03:21:32.836Z,16.96
2022-09-09T03:22:32.762Z,17.05
2022-09-09T03:23:32.682Z,17.05
2022-09-09T03:24:32.608Z,17.33
2022-09-09T03:25:32.525Z,17.82
2022-09-09T03:26:32.452Z,16.86
2022-09-09T03:27:32.374Z,16.86
2022-09-09T03:28:32.647Z,17.05
2022-09-09T03:29:32.222Z,16.96
2022-09-09T03:30:32.147Z,17.43
2022-09-09T03:31:32.119Z,17.82
2022-09-09T03:32:31.991Z,18.77
2022-09-09T03:33:31.907Z,18.77
2022-09-09T03:34:31.835Z,18.87
2022-09-09T03:35:31.758Z,19.16
2022-09-09T03:36:31.679Z,18.87
2022-09-09T03:37:31.603Z,18.77
2022-09-09T03:38:31.528Z,17.82
2022-09-09T03:39:31.503Z,17.82
2022-09-09T03:40:31.369Z,18.58
2022-09-09T03:41:31.295Z,18.87
2022-09-09T03:42:31.227Z,18.68
2022-09-09T03:43:31.138Z,18.58
2022-09-09T03:44:31.058Z,18.68
2022-09-09T03:45:31.027Z,19.82
2022-09-09T03:46:30.909Z,19.92
2022-09-09T03:47:30.835Z,19.73
2022-09-09T03:48:30.890Z,20.02
2022-09-09T03:49:30.677Z,20.31
2022-09-09T03:50:30.601Z,19.64
2022-09-09T03:51:30.517Z,20.40
2022-09-09T03:52:30.449Z,20.59
2022-09-09T03:53:30.366Z,20.02
2022-09-09T03:54:30.293Z,19.45
2022-09-09T03:55:30.212Z,19.35
2022-09-09T03:56:30.131Z,20.12
2022-09-09T03:57:30.063Z,19.73
2022-09-09T03:58:30.036Z,20.40
2022-09-09T03:59:29.906Z,19.73
2022-09-09T04:00:29.826Z,20.40
2022-09-09T04:01:29.783Z,20.69
2022-09-09T04:02:29.718Z,20.78
2022-09-09T04:03:29.591Z,20.59
2022-09-09T04:04:29.521Z,20.50
2022-09-09T04:05:29.442Z,20.50
2022-09-09T04:06:29.362Z,20.59
2022-09-09T04:07:29.287Z,21.07
2022-09-09T04:08:29.248Z,20.59
2022-09-09T04:09:29.135Z,20.69
2022-09-09T04:10:29.059Z,20.50
2022-09-09T04:11:28.980Z,20.59
2022-09-09T04:12:28.899Z,20.50
2022-09-09T04:13:28.822Z,20.50
2022-09-09T04:14:28.750Z,20.59
2022-09-09T04:15:28.673Z,21.65
2022-09-09T04:16:28.677Z,21.17
2022-09-09T04:17:28.512Z,20.40
2022-09-09T04:18:28.438Z,20.88
2022-09-09T04:19:28.362Z,19.82
2022-09-09T04:20:28.281Z,20.98
2022-09-09T04:21:28.206Z,19.82
2022-09-09T04:22:28.128Z,19.82
2022-09-09T04:23:28.050Z,20.39
2022-09-09T04:24:27.969Z,21.15
2022-09-09T04:25:27.896Z,20.97
2022-09-09T04:26:27.815Z,21.36
2022-09-09T04:27:27.748Z,22.03
2022-09-09T04:28:27.661Z,21.92
2022-09-09T04:29:27.589Z,22.32
2022-09-09T04:30:27.509Z,21.94
2022-09-09T04:31:27.546Z,21.65
2022-09-09T04:32:27.354Z,21.35
2022-09-09T04:33:27.277Z,21.45
2022-09-09T04:34:27.201Z,20.88
2022-09-09T04:35:27.124Z,21.36
2022-09-09T04:36:27.046Z,21.07
2022-09-09T04:37:26.960Z,21.73
2022-09-09T04:38:26.885Z,22.40
2022-09-09T04:39:26.814Z,22.98
2022-09-09T04:40:26.737Z,22.78
2022-09-09T04:41:26.656Z,22.69
2022-09-09T04:42:26.585Z,22.41
2022-09-09T04:43:26.505Z,22.11
2022-09-09T04:44:26.422Z,22.41
2022-09-09T04:45:26.428Z,22.40
2022-09-09T04:46:26.278Z,22.11
2022-09-09T04:47:26.188Z,22.40
2022-09-09T04:48:26.110Z,21.92
2022-09-09T04:49:26.039Z,21.92
2022-09-09T04:50:25.960Z,22.03
2022-09-09T04:51:25.892Z,22.40
2022-09-09T04:52:25.806Z,22.99
2022-09-09T04:53:25.731Z,22.98
2022-09-09T04:54:25.651Z,22.99
2022-09-09T04:55:25.572Z,23.27
2022-09-09T04:56:25.494Z,23.93
2022-09-09T04:57:25.420Z,23.57
2022-09-09T04:58:25.344Z,23.55
2022-09-09T04:59:25.262Z,23.27
2022-09-09T05:00:25.187Z,23.18
2022-09-09T05:01:25.198Z,22.89
2022-09-09T05:02:28.541Z,22.99
2022-09-09T05:03:24.960Z,22.80
2022-09-09T05:04:24.877Z,22.89
2022-09-09T05:05:24.796Z,22.41
2022-09-09T05:06:24.739Z,22.80
2022-09-09T05:07:24.647Z,23.08
2022-09-09T05:08:24.566Z,22.41
2022-09-09T05:09:24.489Z,23.47
2022-09-09T05:10:24.415Z,23.66
2022-09-09T05:11:24.349Z,23.18
2022-09-09T05:12:24.258Z,23.08
2022-09-09T05:13:24.175Z,22.98
2022-09-09T05:14:24.109Z,23.57
2022-09-09T05:15:24.034Z,24.03
2022-09-09T05:16:24.120Z,23.47
2022-09-09T05:17:23.872Z,24.52
2022-09-09T05:18:23.790Z,24.14
2022-09-09T05:19:23.718Z,25.19
2022-09-09T05:20:23.634Z,25.38
2022-09-09T05:21:23.561Z,24.99
2022-09-09T05:22:23.486Z,25.00
2022-09-09T05:23:23.409Z,24.90
2022-09-09T05:24:23.325Z,24.62
2022-09-09T05:25:23.254Z,24.14
2022-09-09T05:26:23.170Z,24.23
2022-09-09T05:27:23.096Z,23.75
2022-09-09T05:28:23.021Z,23.85
2022-09-09T05:29:22.940Z,23.94
2022-09-09T05:30:22.862Z,23.37
2022-09-09T05:31:22.854Z,23.75
2022-09-09T05:32:22.706Z,24.81
2022-09-09T05:33:22.627Z,25.77
2022-09-09T05:34:22.558Z,25.48
2022-09-09T05:35:22.485Z,25.48
2022-09-09T05:36:22.399Z,25.10
2022-09-09T05:37:22.328Z,25.67
2022-09-09T05:38:26.950Z,26.34
2022-09-09T05:39:22.166Z,26.63
2022-09-09T05:40:22.145Z,27.01
2022-09-09T05:41:22.010Z,26.72
2022-09-09T05:42:21.931Z,26.82
2022-09-09T05:43:21.870Z,27.59
2022-09-09T05:44:21.788Z,27.59
2022-09-09T05:45:21.699Z,27.68
2022-09-09T05:46:21.702Z,27.49
2022-09-09T05:47:21.547Z,27.59
2022-09-09T05:48:21.468Z,27.78
2022-09-09T05:49:21.398Z,27.41
2022-09-09T05:50:21.313Z,30.19
2022-09-09T05:51:21.239Z,31.04
2022-09-09T05:52:21.164Z,32.39
2022-09-09T05:53:21.084Z,32.47
2022-09-09T05:54:21.010Z,33.35
2022-09-09T05:55:20.926Z,33.04
2022-09-09T05:56:20.852Z,32.76
2022-09-09T05:57:20.776Z,33.62
2022-09-09T05:58:20.698Z,32.86
2022-09-09T05:59:20.622Z,32.76
2022-09-09T06:00:20.545Z,32.28
2022-09-09T06:01:20.469Z,31.71
2022-09-09T06:02:20.534Z,31.51
2022-09-09T06:03:20.360Z,31.42
2022-09-09T06:04:20.232Z,31.71
2022-09-09T06:05:20.155Z,32.29
2022-09-09T06:06:20.080Z,32.78
2022-09-09T06:07:20.008Z,32.95
2022-09-09T06:08:19.923Z,35.25
2022-09-09T06:09:19.847Z,35.16
2022-09-09T06:10:19.785Z,35.16
2022-09-09T06:11:19.696Z,34.67
2022-09-09T06:12:19.619Z,34.67
2022-09-09T06:13:19.538Z,34.10
2022-09-09T06:14:19.466Z,34.00
2022-09-09T06:15:19.391Z,34.29
2022-09-09T06:16:19.409Z,34.77
2022-09-09T06:17:19.238Z,33.53
2022-09-09T06:18:19.156Z,34.39
2022-09-09T06:19:19.085Z,35.16
2022-09-09T06:20:19.003Z,34.10
2022-09-09T06:21:18.923Z,34.10
2022-09-09T06:22:18.846Z,33.53
2022-09-09T06:23:18.768Z,33.33
2022-09-09T06:24:18.690Z,32.76
2022-09-09T06:25:18.612Z,32.47
2022-09-09T06:26:18.567Z,32.76
2022-09-09T06:27:18.454Z,32.18
2022-09-09T06:28:18.382Z,32.18
2022-09-09T06:29:18.309Z,32.09
2022-09-09T06:30:18.238Z,33.53
2022-09-09T06:31:18.214Z,34.39
2022-09-09T06:32:18.072Z,34.39
2022-09-09T06:33:17.992Z,33.81
2022-09-09T06:34:17.917Z,33.72
2022-09-09T06:35:17.840Z,34.87
2022-09-09T06:36:17.765Z,35.35
2022-09-09T06:37:17.688Z,36.02
2022-09-09T06:38:17.608Z,35.44
2022-09-09T06:39:17.537Z,35.63
2022-09-09T06:40:17.484Z,34.67
2022-09-09T06:41:17.374Z,34.87
2022-09-09T06:42:17.299Z,36.11
2022-09-09T06:43:17.224Z,36.90
2022-09-09T06:44:17.146Z,36.59
2022-09-09T06:45:17.067Z,37.38
2022-09-09T06:46:17.040Z,37.95
2022-09-09T06:47:16.915Z,39.29
2022-09-09T06:48:16.834Z,41.21
2022-09-09T06:49:16.761Z,40.64
2022-09-09T06:50:16.680Z,39.97
2022-09-09T06:51:16.601Z,39.39
2022-09-09T06:52:16.529Z,39.10
2022-09-09T06:53:16.451Z,38.62
2022-09-09T06:54:16.379Z,37.76
2022-09-09T06:55:16.294Z,38.16
2022-09-09T06:56:18.031Z,38.35
2022-09-09T06:57:34.041Z,39.03
2022-09-09T06:58:16.065Z,40.17
2022-09-09T06:59:15.989Z,43.82
2022-09-09T07:00:15.906Z,44.59
2022-09-09T07:01:15.892Z,44.49
2022-09-09T07:02:15.803Z,44.49
2022-09-09T07:03:15.683Z,44.59
2022-09-09T07:04:15.602Z,43.82
2022-09-09T07:05:15.532Z,43.82
2022-09-09T07:06:15.451Z,43.73
2022-09-09T07:07:15.370Z,43.34
2022-09-09T07:08:15.298Z,45.16
2022-09-09T07:09:15.218Z,44.87
2022-09-09T07:10:15.144Z,44.97
2022-09-09T07:11:15.068Z,46.41
2022-09-09T07:12:14.982Z,44.59
2022-09-09T07:13:14.913Z,44.11
2022-09-09T07:14:14.848Z,46.03
2022-09-09T07:15:14.758Z,47.85
2022-09-09T07:16:14.687Z,50.05
2022-09-09T07:17:14.605Z,52.07
2022-09-09T07:18:14.527Z,49.19
2022-09-09T07:19:14.452Z,48.80
2022-09-09T07:20:14.372Z,48.71
2022-09-09T07:21:14.300Z,48.35
2022-09-09T07:22:14.219Z,49.79
2022-09-09T07:23:14.147Z,50.24
2022-09-09T07:24:14.080Z,49.76
2022-09-09T07:25:13.984Z,50.73
2022-09-09T07:26:13.915Z,51.87
2022-09-09T07:27:13.837Z,51.51
2022-09-09T07:28:13.760Z,50.37
2022-09-09T07:29:17.271Z,48.64
2022-09-09T07:30:19.273Z,48.25
2022-09-09T07:31:13.583Z,47.01
2022-09-09T07:32:13.452Z,47.10
2022-09-09T07:33:13.377Z,47.01
2022-09-09T07:34:13.294Z,48.25
2022-09-09T07:35:13.222Z,50.17
2022-09-09T07:36:13.148Z,51.81
2022-09-09T07:37:13.070Z,52.02
2022-09-09T07:38:13.000Z,51.61
2022-09-09T07:39:12.920Z,51.16
2022-09-09T07:40:12.868Z,50.29
2022-09-09T07:41:12.784Z,52.40
2022-09-09T07:42:12.687Z,52.31
2022-09-09T07:43:17.115Z,51.16
2022-09-09T07:44:12.533Z,52.02
2022-09-09T07:45:12.459Z,52.12
2022-09-09T07:46:12.455Z,50.20
2022-09-09T07:47:12.307Z,53.05
2022-09-09T07:48:12.231Z,51.35
2022-09-09T07:49:12.151Z,50.75
2022-09-09T07:50:12.072Z,48.64
2022-09-09T07:51:11.998Z,49.12
2022-09-09T07:52:13.225Z,47.30
2022-09-09T07:53:11.842Z,46.91
2022-09-09T07:54:11.767Z,48.16
2022-09-09T07:55:11.694Z,47.10
2022-09-09T07:56:11.620Z,45.76
2022-09-09T07:57:11.541Z,44.30
2022-09-09T07:58:11.464Z,42.96
2022-09-09T07:59:11.401Z,41.04
2022-09-09T08:00:11.309Z,41.42
2022-09-09T08:01:11.232Z,40.75
2022-09-09T08:02:11.165Z,40.94
2022-09-09T08:03:11.126Z,40.56
2022-09-09T08:04:11.018Z,39.89
2022-09-09T08:05:10.927Z,40.37
2022-09-09T08:06:10.854Z,42.00
2022-09-09T08:07:10.772Z,42.47
2022-09-09T08:08:10.695Z,41.71
2022-09-09T08:09:10.621Z,40.27
2022-09-09T08:10:10.543Z,39.50
2022-09-09T08:11:10.467Z,38.54
2022-09-09T08:12:10.393Z,37.68
2022-09-09T08:13:17.946Z,37.59
2022-09-09T08:14:10.236Z,36.82
2022-09-09T08:15:10.159Z,36.05
2022-09-09T08:16:10.143Z,35.67
2022-09-09T08:17:10.009Z,34.81
2022-09-09T08:18:09.935Z,34.81
2022-09-09T08:19:09.856Z,34.71
2022-09-09T08:20:09.779Z,35.19
2022-09-09T08:21:09.696Z,34.90
2022-09-09T08:22:09.628Z,33.75
2022-09-09T08:23:09.546Z,34.52
2022-09-09T08:24:09.473Z,33.37
2022-09-09T08:25:09.395Z,33.27
2022-09-09T08:26:09.314Z,34.15
2022-09-09T08:27:09.241Z,35.19
2022-09-09T08:28:09.164Z,34.61
2022-09-09T08:29:09.084Z,34.23
2022-09-09T08:30:09.011Z,34.81
2022-09-09T08:31:08.984Z,33.56
2022-09-09T08:32:08.853Z,32.79
2022-09-09T08:33:08.779Z,32.23
2022-09-09T08:34:08.703Z,31.93
2022-09-09T08:35:08.626Z,31.84
2022-09-09T08:36:08.547Z,32.21
2022-09-09T08:37:08.472Z,31.93
2022-09-09T08:38:10.969Z,32.21
2022-09-09T08:39:08.321Z,31.93
2022-09-09T08:40:08.267Z,31.26
2022-09-09T08:41:08.164Z,31.54
2022-09-09T08:42:08.087Z,31.84
2022-09-09T08:43:08.013Z,32.41
2022-09-09T08:44:07.939Z,32.14
2022-09-09T08:45:07.856Z,33.09
2022-09-09T08:46:07.793Z,33.58
2022-09-09T08:47:07.703Z,33.29
2022-09-09T08:48:07.632Z,33.00
2022-09-09T08:49:07.550Z,33.39
2022-09-09T08:50:07.475Z,32.62
2022-09-09T08:51:07.419Z,32.04
2022-09-09T08:52:07.319Z,31.75
2022-09-09T08:53:07.245Z,32.90
2022-09-09T08:54:07.168Z,33.09
2022-09-09T08:55:07.088Z,33.39
2022-09-09T08:56:07.018Z,32.04
2022-09-09T08:57:06.939Z,32.62
2022-09-09T08:58:06.863Z,33.40
2022-09-09T08:59:06.783Z,34.25
2022-09-09T09:00:06.708Z,34.82
2022-09-09T09:01:06.629Z,34.94
2022-09-09T09:02:06.612Z,34.75
2022-09-09T09:03:06.479Z,34.75
2022-09-09T09:04:06.403Z,35.13
2022-09-09T09:05:06.442Z,35.42
2022-09-09T09:06:06.254Z,35.99
2022-09-09T09:07:06.173Z,36.68
2022-09-09T09:08:06.095Z,37.45
2022-09-09T09:09:06.022Z,37.74
2022-09-09T09:10:18.915Z,39.56
2022-09-09T09:11:05.866Z,40.05
2022-09-09T09:12:05.793Z,41.39
2022-09-09T09:13:05.718Z,41.29
2022-09-09T09:14:05.638Z,41.39
2022-09-09T09:15:05.564Z,40.91
2022-09-09T09:16:05.561Z,40.25
2022-09-09T09:17:05.416Z,42.44
2022-09-09T09:18:05.340Z,43.62
2022-09-09T09:19:05.255Z,43.62
2022-09-09T09:20:05.181Z,41.89
2022-09-09T09:21:05.110Z,42.08
2022-09-09T09:22:05.035Z,43.81
2022-09-09T09:23:04.958Z,53.23
2022-09-09T09:24:04.878Z,54.38
2022-09-09T09:25:04.802Z,51.88
2022-09-09T09:26:04.723Z,53.23
2022-09-09T09:27:04.673Z,53.03
2022-09-09T09:28:04.573Z,52.10
2022-09-09T09:29:04.501Z,51.14
2022-09-09T09:30:22.824Z,49.60
2022-09-09T09:31:04.364Z,50.08
2022-09-09T09:32:04.269Z,52.39
2022-09-09T09:33:04.200Z,54.69
2022-09-09T09:34:04.119Z,56.07
2022-09-09T09:35:04.042Z,54.14
2022-09-09T09:36:03.970Z,59.82
2022-09-09T09:37:03.884Z,58.37
2022-09-09T09:40:03.961Z,61.84
2022-09-09T09:41:03.590Z,63.48
2022-09-09T09:42:06.470Z,61.16
2022-09-09T09:43:03.439Z,61.97
2022-09-09T09:44:03.366Z,61.39
2022-09-09T09:45:03.287Z,60.52
2022-09-09T09:46:18.524Z,58.31
2022-09-09T09:47:03.213Z,58.98
2022-09-09T09:48:07.135Z,69.09
2022-09-09T09:49:02.981Z,67.07
2022-09-09T09:50:02.909Z,71.59
2022-09-09T09:51:02.835Z,68.38
2022-09-09T09:52:02.766Z,66.49
2022-09-09T09:53:02.686Z,64.73
2022-09-09T09:54:02.613Z,63.31
2022-09-09T09:55:06.868Z,60.52
2022-09-09T09:56:02.465Z,69.28
2022-09-09T09:57:02.385Z,66.58
2022-09-09T09:58:02.444Z,63.02
2022-09-09T09:59:09.266Z,65.37
2022-09-09T10:00:02.161Z,64.12
2022-09-09T10:01:02.080Z,65.66
2022-09-09T10:02:02.010Z,70.47
2022-09-09T10:03:01.946Z,66.14
2022-09-09T10:04:01.855Z,68.84
2022-09-09T10:05:01.867Z,75.48
2022-09-09T10:06:01.707Z,74.51
2022-09-09T10:07:01.639Z,72.14
2022-09-09T10:08:01.559Z,69.45
2022-09-09T10:09:01.487Z,73.97
2022-09-09T10:10:01.410Z,71.37
2022-09-09T10:11:01.333Z,71.70
2022-09-09T10:12:01.272Z,72.85
2022-09-09T10:13:01.182Z,75.36
2022-09-09T10:14:01.109Z,80.76
2022-09-09T10:15:01.039Z,83.45
2022-09-09T10:16:05.109Z,78.44
2022-09-09T10:17:00.885Z,78.63
2022-09-09T10:18:00.810Z,81.24
2022-09-09T10:19:00.740Z,87.88
2022-09-09T10:20:00.659Z,86.25
2022-09-09T10:21:00.586Z,88.37
2022-09-09T10:22:00.513Z,88.75
2022-09-09T10:23:00.438Z,96.08
2022-09-09T10:24:00.376Z,95.40
2022-09-09T10:25:00.293Z,95.21
2022-09-09T10:26:00.219Z,90.88
2022-09-09T10:27:00.142Z,99.16
2022-09-09T10:28:05.351Z,95.50
2022-09-09T10:28:59.990Z,94.15
2022-09-09T10:29:59.920Z,91.36
2022-09-09T10:30:59.887Z,89.43
2022-09-09T10:31:59.772Z,86.73
2022-09-09T10:32:59.741Z,85.96
2022-09-09T10:33:59.619Z,86.87
2022-09-09T10:34:59.550Z,80.41
2022-09-09T10:35:59.472Z,83.01
2022-09-09T10:36:59.402Z,87.35
2022-09-09T10:37:59.326Z,86.29
2022-09-09T10:38:59.252Z,93.33
2022-09-09T10:39:59.231Z,93.71
2022-09-09T10:40:59.110Z,89.09
2022-09-09T10:41:59.031Z,91.69
2022-09-09T10:42:58.951Z,90.92
2022-09-09T10:44:00.624Z,91.20
2022-09-09T10:44:58.807Z,90.05
2022-09-09T10:45:58.816Z,91.88
2022-09-09T10:47:01.759Z,89.32
2022-09-09T10:47:58.582Z,86.72
2022-09-09T10:48:58.516Z,89.90
2022-09-09T10:49:58.438Z,90.38
2022-09-09T10:51:04.547Z,87.30
2022-09-09T10:51:58.288Z,88.84
2022-09-09T10:52:58.213Z,95.98
2022-09-09T10:53:58.138Z,95.83
2022-09-09T10:54:58.067Z,97.19
2022-09-09T10:55:57.995Z,98.92
2022-09-09T10:56:57.921Z,99.21
2022-09-09T10:57:57.851Z,98.73
2022-09-09T10:58:57.775Z,97.47
2022-09-09T10:59:57.703Z,96.22
2022-09-09T11:00:58.335Z,88.69
2022-09-09T11:01:57.547Z,97.96
2022-09-09T11:02:57.478Z,96.26
2022-09-09T11:03:57.399Z,99.88
2022-09-09T11:04:57.328Z,99.99
2022-09-09T11:05:57.279Z,99.99
2022-09-09T11:06:57.180Z,99.99
2022-09-09T11:07:57.105Z,99.99
2022-09-09T11:08:57.192Z,99.99
2022-09-09T11:09:56.966Z,99.99
2022-09-09T11:10:56.887Z,99.99
2022-09-09T11:11:56.817Z,99.99
2022-09-09T11:12:56.744Z,99.99
2022-09-09T11:13:56.924Z,91.16
2022-09-09T11:14:56.596Z,96.56
2022-09-09T11:15:56.522Z,94.48
2022-09-09T11:16:56.482Z,98.05
2022-09-09T11:17:56.376Z,97.19
2022-09-09T11:18:56.301Z,98.68
2022-09-09T11:19:56.230Z,99.99
2022-09-09T11:20:56.152Z,99.99
2022-09-09T11:21:56.075Z,99.99
2022-09-09T11:22:56.007Z,99.99
2022-09-09T11:23:55.931Z,99.99
2022-09-09T11:24:55.857Z,99.99
2022-09-09T11:25:55.824Z,99.99
2022-09-09T11:26:55.714Z,99.99
2022-09-09T11:27:55.640Z,99.99
2022-09-09T11:28:55.567Z,99.99
2022-09-09T11:29:55.493Z,99.99
2022-09-09T11:30:57.135Z,99.99
2022-09-09T11:31:55.346Z,99.99
2022-09-09T11:32:55.271Z,99.99
2022-09-09T11:33:55.197Z,99.99
2022-09-09T11:34:55.128Z,99.99
2022-09-09T11:35:55.051Z,99.99
2022-09-09T11:36:54.978Z,99.99
2022-09-09T11:37:54.908Z,99.99
2022-09-09T11:38:54.835Z,99.99
2022-09-09T11:39:54.811Z,99.99
2022-09-09T11:40:54.688Z,99.99
2022-09-09T11:41:54.662Z,99.99
2022-09-09T11:42:54.545Z,99.99
2022-09-09T11:43:54.469Z,99.99
2022-09-09T11:44:54.396Z,99.99
2022-09-09T11:45:58.658Z,99.99
2022-09-09T11:46:54.254Z,99.99
2022-09-09T11:47:54.175Z,99.99
2022-09-09T11:48:54.106Z,99.99
2022-09-09T11:49:54.034Z,99.99
2022-09-09T11:50:53.964Z,99.99
2022-09-09T11:51:53.887Z,99.99
2022-09-09T11:52:53.819Z,99.99
2022-09-09T11:53:53.744Z,99.99
2022-09-09T11:54:53.679Z,96.89
2022-09-09T11:55:53.606Z,93.87
2022-09-09T11:56:53.536Z,98.49
2022-09-09T11:57:53.459Z,87.96
2022-09-09T11:58:53.388Z,80.56
2022-09-09T11:59:53.318Z,76.80
2022-09-09T12:00:53.252Z,76.74
2022-09-09T12:01:53.175Z,77.19
2022-09-09T12:02:53.102Z,75.49
2022-09-09T12:03:53.104Z,80.04
2022-09-09T12:04:53.015Z,79.59
2022-09-09T12:05:52.893Z,74.15
2022-09-09T12:06:52.823Z,69.79
2022-09-09T12:07:52.757Z,68.39
2022-09-09T12:08:52.685Z,68.85
2022-09-09T12:09:52.618Z,66.76
2022-09-09T12:10:52.547Z,67.64
2022-09-09T12:11:52.486Z,67.54
2022-09-09T12:12:52.409Z,64.09
2022-09-09T12:13:52.333Z,67.32
2022-09-09T12:14:52.268Z,67.32
2022-09-09T12:15:52.199Z,65.00
2022-09-09T12:16:52.189Z,64.77
2022-09-09T12:17:52.071Z,65.72
2022-09-09T12:18:52.060Z,63.47
2022-09-09T12:19:51.932Z,62.19
2022-09-09T12:20:51.860Z,61.31
2022-09-09T12:21:51.791Z,61.83
2022-09-09T12:22:51.727Z,62.29
2022-09-09T12:23:51.667Z,62.07
2022-09-09T12:24:51.588Z,64.29
2022-09-09T12:25:51.526Z,66.73
2022-09-09T12:26:51.456Z,67.61
2022-09-09T12:27:51.393Z,65.39
2022-09-09T12:28:51.331Z,65.16
2022-09-09T12:29:51.258Z,63.08
2022-09-09T12:30:51.257Z,62.13
2022-09-09T12:31:51.122Z,63.67
2022-09-09T12:32:51.104Z,65.10
2022-09-09T12:33:50.994Z,67.28
2022-09-09T12:34:50.923Z,68.29
2022-09-09T12:35:50.856Z,68.71
2022-09-09T12:36:53.827Z,72.66
2022-09-09T12:37:50.721Z,75.51
2022-09-09T12:38:50.663Z,79.84
2022-09-09T12:39:50.606Z,80.68
2022-09-09T12:40:50.517Z,84.71
2022-09-09T12:41:50.450Z,89.13
2022-09-09T12:42:50.384Z,91.31
2022-09-09T12:43:50.315Z,96.89
2022-09-09T12:44:50.246Z,98.78
2022-09-09T12:45:50.206Z,99.99
2022-09-09T12:46:50.109Z,99.99
2022-09-09T12:47:50.047Z,99.99
2022-09-09T12:48:49.965Z,99.99
2022-09-09T12:49:49.897Z,99.99
2022-09-09T12:50:49.832Z,99.99
2022-09-09T12:51:49.761Z,99.99
2022-09-09T12:52:49.691Z,99.99
2022-09-09T12:53:49.626Z,99.99